Time;durP1;ratioP1;P1;durP2;ratioP2;P2;SDS_P1;SDS_P2;PMS_P1;PMS_P2;Temp;Humidity;BMP_temperature;BMP_pressure;BME280_temperature;BME280_humidity;BME280_pressure;Samples;Min_cycle;Max_cycle;Signal;HPM_P1;HPM_P2
2024/01/03 00:00:40;;;;;;;2.08;0.60;;;;;17.30;97693.00;;;;2076295;28;20206;-52
2024/01/03 00:01:42;;;;;;;2.13;0.70;;;;;17.30;97709.00;;;;2069983;28;20220;-53
2024/01/03 00:02:44;;;;;;;2.03;0.77;;;;;17.30;97709.00;;;;2058724;28;20226;-56
2024/01/03 00:03:44;;;;;;;1.73;0.70;;;;;17.30;97705.00;;;;2084856;28;20237;-54
2024/01/03 00:04:44;;;;;;;3.53;0.60;;;;;17.30;97708.00;;;;2083999;28;20233;-53
2024/01/03 00:05:45;;;;;;;2.47;0.70;;;;;17.30;97708.00;;;;2085461;28;20255;-53
2024/01/03 00:06:45;;;;;;;1.97;0.77;;;;;17.30;97716.00;;;;2075348;28;20269;-53
2024/01/03 00:07:46;;;;;;;1.93;0.60;;;;;17.30;97712.00;;;;2075448;28;20562;-53
2024/01/03 00:08:46;;;;;;;1.70;0.50;;;;;17.30;97719.00;;;;2068131;28;20780;-53
2024/01/03 00:09:47;;;;;;;3.57;0.70;;;;;17.30;97707.00;;;;2081315;28;20223;-52
2024/01/03 00:10:57;;;;;;;1.57;0.53;;;;;17.30;97710.00;;;;2085057;28;20212;-52
2024/01/03 00:11:58;;;;;;;2.20;0.60;;;;;17.30;97714.00;;;;2080219;28;20213;-52
2024/01/03 00:12:58;;;;;;;2.60;0.63;;;;;17.30;97725.00;;;;2086292;28;20263;-52
2024/01/03 00:14:06;;;;;;;1.93;0.63;;;;;17.30;97721.00;;;;2090063;28;20221;-52
2024/01/03 00:15:35;;;;;;;2.95;0.70;;;;;17.30;97716.00;;;;2085160;28;20576;-52
2024/01/03 00:16:39;;;;;;;1.85;0.60;;;;;17.30;97733.00;;;;2065888;28;20230;-52
2024/01/03 00:17:43;;;;;;;2.28;0.70;;;;;17.30;97699.00;;;;2074585;28;20772;-52
2024/01/03 00:18:54;;;;;;;1.70;0.60;;;;;17.30;97721.00;;;;2083998;28;20672;-52
2024/01/03 00:19:55;;;;;;;2.35;0.77;;;;;17.30;97736.00;;;;2084760;28;20217;-52
2024/01/03 00:20:59;;;;;;;3.05;0.73;;;;;17.30;97729.00;;;;2082402;28;20213;-52
2024/01/03 00:22:00;;;;;;;2.17;0.60;;;;;17.30;97723.00;;;;2073364;28;20216;-52
2024/01/03 00:23:04;;;;;;;2.72;0.93;;;;;17.30;97713.00;;;;2087889;28;20212;-52
2024/01/03 00:24:05;;;;;;;1.40;0.60;;;;;17.30;97731.00;;;;2087970;28;20202;-52
2024/01/03 00:25:05;;;;;;;2.90;0.65;;;;;17.30;97728.00;;;;2088406;28;20391;-52
2024/01/03 00:26:09;;;;;;;1.43;0.53;;;;;17.30;97725.00;;;;2078942;28;20233;-52
2024/01/03 00:27:09;;;;;;;1.95;0.80;;;;;17.30;97719.00;;;;2061981;28;20237;-52
2024/01/03 00:28:09;;;;;;;2.20;0.80;;;;;17.30;97734.00;;;;2072068;28;20221;-52
2024/01/03 00:29:21;;;;;;;2.43;0.60;;;;;17.30;97707.00;;;;2067211;28;20265;-52
2024/01/03 00:30:22;;;;;;;3.05;0.60;;;;;17.30;97495.00;;;;2076624;28;20233;-52
2024/01/03 00:31:25;;;;;;;4.53;0.57;;;;;17.30;97730.00;;;;2082089;28;20596;-53
2024/01/03 00:32:25;;;;;;;2.65;0.90;;;;;17.30;97730.00;;;;2075723;28;20270;-52
2024/01/03 00:33:26;;;;;;;3.07;0.70;;;;;17.30;97725.00;;;;2072717;28;20301;-52
2024/01/03 00:34:37;;;;;;;1.83;0.60;;;;;17.30;97725.00;;;;2076250;28;20219;-52
2024/01/03 00:35:38;;;;;;;2.65;0.50;;;;;17.30;97724.00;;;;2089718;28;20736;-52
2024/01/03 00:36:38;;;;;;;2.25;0.88;;;;;17.30;97744.00;;;;2085607;28;20221;-52
2024/01/03 00:37:40;;;;;;;3.83;0.90;;;;;17.30;97734.00;;;;2081168;28;20696;-53
2024/01/03 00:38:42;;;;;;;4.85;0.80;;;;;17.30;97738.00;;;;2084536;28;20230;-52
2024/01/03 00:39:42;;;;;;;2.38;0.60;;;;;17.30;97732.00;;;;2076514;28;20225;-52
2024/01/03 00:40:53;;;;;;;1.63;0.50;;;;;17.30;97727.00;;;;2083608;28;20723;-52
2024/01/03 00:41:54;;;;;;;1.70;0.50;;;;;17.30;97738.00;;;;2074100;28;20579;-52
2024/01/03 00:42:55;;;;;;;2.38;0.50;;;;;17.30;97730.00;;;;2081751;28;20210;-52
2024/01/03 00:43:55;;;;;;;4.30;0.80;;;;;17.30;97745.00;;;;2091360;28;20225;-52
2024/01/03 00:44:55;;;;;;;1.70;0.67;;;;;17.30;97748.00;;;;2084493;28;20300;-52
2024/01/03 00:45:56;;;;;;;3.23;0.93;;;;;17.30;97741.00;;;;2084050;28;20211;-52
2024/01/03 00:46:56;;;;;;;1.87;0.50;;;;;17.30;97745.00;;;;2075506;28;20291;-52
2024/01/03 00:47:57;;;;;;;2.37;0.87;;;;;17.30;97746.00;;;;2075823;28;20210;-52
2024/01/03 00:48:57;;;;;;;1.67;0.50;;;;;17.30;97747.00;;;;2083061;28;20217;-52
2024/01/03 00:49:57;;;;;;;1.83;0.60;;;;;17.30;97747.00;;;;2088390;28;20212;-53
2024/01/03 00:50:58;;;;;;;1.70;0.60;;;;;17.30;97758.00;;;;2083460;28;20217;-52
2024/01/03 00:51:58;;;;;;;2.03;0.60;;;;;17.30;97753.00;;;;2072032;28;20291;-52
2024/01/03 00:52:58;;;;;;;2.50;0.90;;;;;17.30;97768.00;;;;2058124;28;20208;-52
2024/01/03 00:53:59;;;;;;;2.97;0.67;;;;;17.30;97756.00;;;;2076508;28;20233;-52
2024/01/03 00:54:59;;;;;;;2.20;0.60;;;;;17.30;97621.00;;;;2084706;28;20217;-52
2024/01/03 00:55:59;;;;;;;2.33;0.60;;;;;17.30;97782.00;;;;2085497;28;20224;-52
2024/01/03 00:57:00;;;;;;;2.37;0.83;;;;;17.30;97778.00;;;;2072240;28;20681;-52
2024/01/03 00:58:00;;;;;;;2.63;0.73;;;;;17.30;97779.00;;;;2084726;28;20772;-52
2024/01/03 00:59:01;;;;;;;1.83;0.70;;;;;17.30;97771.00;;;;2086207;28;20213;-52
2024/01/03 01:00:01;;;;;;;1.80;0.70;;;;;17.30;97770.00;;;;2085286;28;20255;-52
2024/01/03 01:01:01;;;;;;;3.90;1.00;;;;;17.30;97768.00;;;;2085667;28;20222;-52
2024/01/03 01:02:02;;;;;;;2.87;0.97;;;;;17.30;97771.00;;;;2075758;28;20248;-53
2024/01/03 01:03:04;;;;;;;2.33;0.73;;;;;17.30;97775.00;;;;2088607;28;20218;-53
2024/01/03 01:04:04;;;;;;;1.40;0.60;;;;;17.30;97761.00;;;;2090617;28;20670;-53
2024/01/03 01:05:05;;;;;;;1.70;0.70;;;;;17.30;97750.00;;;;2089281;28;20214;-52
2024/01/03 01:06:05;;;;;;;1.90;0.70;;;;;17.30;97774.00;;;;2087531;28;20209;-53
2024/01/03 01:07:06;;;;;;;3.83;0.60;;;;;17.30;97780.00;;;;2067172;28;20669;-52
2024/01/03 01:08:06;;;;;;;3.10;0.80;;;;;17.30;97761.00;;;;2079072;28;22491;-53
2024/01/03 01:09:08;;;;;;;1.53;0.50;;;;;17.30;97774.00;;;;2083930;28;20211;-53
2024/01/03 01:10:08;;;;;;;3.78;0.63;;;;;17.30;97772.00;;;;2086635;28;20706;-52
2024/01/03 01:11:09;;;;;;;3.13;0.60;;;;;17.30;97774.00;;;;2078617;28;20224;-52
2024/01/03 01:12:09;;;;;;;2.70;0.87;;;;;17.20;97778.00;;;;2076970;28;20557;-53
2024/01/03 01:13:09;;;;;;;2.73;0.63;;;;;17.20;97787.00;;;;2085078;28;20209;-53
2024/01/03 01:14:10;;;;;;;2.83;0.80;;;;;17.30;97788.00;;;;2085843;28;22424;-52
2024/01/03 01:15:10;;;;;;;2.23;0.60;;;;;17.30;97782.00;;;;2086821;28;20280;-53
2024/01/03 01:16:11;;;;;;;2.37;0.80;;;;;16.80;97788.00;;;;2085751;28;20687;-52
2024/01/03 01:17:11;;;;;;;1.80;0.70;;;;;17.30;97791.00;;;;2076932;28;20221;-53
2024/01/03 01:18:11;;;;;;;3.57;0.77;;;;;17.30;97785.00;;;;2086233;28;20217;-52
2024/01/03 01:19:12;;;;;;;2.37;0.80;;;;;17.30;97777.00;;;;2086602;28;20223;-53
2024/01/03 01:20:12;;;;;;;2.10;0.80;;;;;17.30;97785.00;;;;2089061;28;20228;-52
2024/01/03 01:21:13;;;;;;;2.80;0.60;;;;;17.30;97787.00;;;;2088190;28;20255;-52
2024/01/03 01:22:13;;;;;;;3.50;1.00;;;;;17.30;97798.00;;;;2084603;28;20224;-53
2024/01/03 01:23:13;;;;;;;2.63;0.70;;;;;17.30;97791.00;;;;2092055;28;20214;-53
2024/01/03 01:24:14;;;;;;;1.47;0.60;;;;;17.30;97792.00;;;;2091323;28;20709;-53
2024/01/03 01:25:15;;;;;;;2.30;0.77;;;;;17.30;97787.00;;;;2084879;28;20236;-53
2024/01/03 01:26:16;;;;;;;2.22;0.70;;;;;17.30;97786.00;;;;2085240;28;20223;-53
2024/01/03 01:27:16;;;;;;;3.53;0.73;;;;;17.30;97789.00;;;;2076654;28;20965;-52
2024/01/03 01:28:16;;;;;;;2.27;0.60;;;;;17.30;97799.00;;;;2089738;28;20338;-52
2024/01/03 01:29:17;;;;;;;1.97;0.50;;;;;17.30;97837.00;;;;2090700;28;20291;-52
2024/01/03 01:30:17;;;;;;;3.57;1.00;;;;;17.30;97786.00;;;;2086066;28;20214;-52
2024/01/03 01:31:17;;;;;;;3.53;0.70;;;;;17.30;97788.00;;;;2085439;28;20775;-52
2024/01/03 01:32:18;;;;;;;2.67;0.77;;;;;17.30;97785.00;;;;2074131;28;20687;-53
2024/01/03 01:33:18;;;;;;;2.80;0.67;;;;;17.30;97782.00;;;;2081592;28;20858;-52
2024/01/03 01:34:18;;;;;;;2.07;0.70;;;;;17.30;97797.00;;;;2086359;28;20953;-53
2024/01/03 01:35:19;;;;;;;2.70;0.73;;;;;17.30;97793.00;;;;2085203;28;20842;-52
2024/01/03 01:36:19;;;;;;;2.20;0.80;;;;;17.30;97792.00;;;;2090386;28;20321;-52
2024/01/03 01:37:19;;;;;;;4.07;1.53;;;;;17.30;97793.00;;;;2078642;28;20723;-52
2024/01/03 01:38:20;;;;;;;2.80;0.70;;;;;17.30;97802.00;;;;2086128;28;20815;-52
2024/01/03 01:39:20;;;;;;;2.80;0.70;;;;;17.30;97803.00;;;;2085151;28;20218;-52
2024/01/03 01:40:20;;;;;;;1.83;0.67;;;;;17.30;97785.00;;;;2086580;28;20238;-52
2024/01/03 01:41:21;;;;;;;2.30;0.67;;;;;17.30;97791.00;;;;2085095;28;20925;-52
2024/01/03 01:42:22;;;;;;;2.23;0.70;;;;;17.30;97789.00;;;;2075947;28;20213;-52
2024/01/03 01:43:23;;;;;;;4.25;1.00;;;;;17.30;97800.00;;;;2086468;28;20267;-53
2024/01/03 01:44:23;;;;;;;2.80;0.90;;;;;17.30;97795.00;;;;2085611;28;20216;-53
2024/01/03 01:45:23;;;;;;;2.77;0.80;;;;;17.30;97800.00;;;;2091022;28;20226;-53
2024/01/03 01:46:24;;;;;;;2.23;0.77;;;;;17.20;97812.00;;;;2085773;28;20690;-54
2024/01/03 01:47:24;;;;;;;1.97;0.60;;;;;17.30;97796.00;;;;2073279;28;20719;-53
2024/01/03 01:48:24;;;;;;;2.37;0.70;;;;;17.30;97814.00;;;;2080263;28;20212;-53
2024/01/03 01:49:25;;;;;;;2.93;0.63;;;;;17.30;97823.00;;;;2078806;28;20217;-53
2024/01/03 01:50:25;;;;;;;1.73;0.53;;;;;17.30;97814.00;;;;2085865;28;20216;-53
2024/01/03 01:51:25;;;;;;;2.80;1.00;;;;;17.30;97802.00;;;;2075487;28;20215;-53
2024/01/03 01:52:26;;;;;;;2.80;0.90;;;;;17.30;97810.00;;;;2067344;28;20221;-53
2024/01/03 01:53:26;;;;;;;3.60;0.60;;;;;17.30;97811.00;;;;2082140;28;20217;-53
2024/01/03 01:54:26;;;;;;;3.00;0.90;;;;;17.30;97805.00;;;;2082324;28;20217;-53
2024/01/03 01:55:26;;;;;;;2.37;0.80;;;;;17.30;97793.00;;;;2077210;28;20220;-53
2024/01/03 01:56:27;;;;;;;2.00;0.60;;;;;17.30;97815.00;;;;2067648;28;20268;-53
2024/01/03 01:57:28;;;;;;;3.60;0.80;;;;;17.30;97809.00;;;;2067058;28;20227;-53
2024/01/03 01:58:28;;;;;;;1.83;0.67;;;;;17.30;97817.00;;;;2085497;28;20219;-53
2024/01/03 01:59:29;;;;;;;3.30;0.90;;;;;17.30;97822.00;;;;2086382;28;20456;-53
2024/01/03 02:00:29;;;;;;;2.27;0.73;;;;;17.30;97807.00;;;;2088257;28;20223;-53
2024/01/03 02:01:29;;;;;;;2.93;0.60;;;;;17.30;97814.00;;;;2088837;28;20269;-53
2024/01/03 02:02:30;;;;;;;2.30;0.70;;;;;17.30;97812.00;;;;2068116;28;20214;-53
2024/01/03 02:03:30;;;;;;;2.50;0.80;;;;;17.30;97820.00;;;;2073893;28;20266;-52
2024/01/03 02:04:32;;;;;;;2.20;0.57;;;;;17.30;97809.00;;;;2084554;28;20218;-53
2024/01/03 02:05:34;;;;;;;2.28;0.65;;;;;17.30;97795.00;;;;2086651;28;20372;-52
2024/01/03 02:06:34;;;;;;;2.17;0.60;;;;;17.30;97815.00;;;;2082746;28;20213;-52
2024/01/03 02:07:34;;;;;;;1.60;0.50;;;;;17.30;97812.00;;;;2073235;28;20212;-52
2024/01/03 02:08:35;;;;;;;2.77;0.90;;;;;17.30;97822.00;;;;2093335;28;20210;-53
2024/01/03 02:09:35;;;;;;;2.50;0.63;;;;;17.30;97828.00;;;;2084127;28;20218;-52
2024/01/03 02:10:35;;;;;;;1.77;0.60;;;;;17.20;97826.00;;;;2092057;28;20209;-52
2024/01/03 02:11:43;;;;;;;3.00;1.07;;;;;17.20;97835.00;;;;2082655;28;20234;-52
2024/01/03 02:12:44;;;;;;;4.13;1.10;;;;;17.20;97823.00;;;;2075378;28;20309;-52
2024/01/03 02:13:44;;;;;;;2.10;0.80;;;;;17.20;97822.00;;;;2085523;28;20229;-52
2024/01/03 02:14:44;;;;;;;3.67;0.93;;;;;17.30;97827.00;;;;2076872;28;20211;-52
2024/01/03 02:15:45;;;;;;;1.43;0.60;;;;;17.30;97816.00;;;;2077129;28;20218;-52
2024/01/03 02:16:45;;;;;;;3.60;0.93;;;;;17.20;97821.00;;;;2079521;28;20211;-52
2024/01/03 02:17:45;;;;;;;2.00;0.80;;;;;17.30;97810.00;;;;2083542;28;20215;-52
2024/01/03 02:18:46;;;;;;;1.80;0.80;;;;;17.30;97815.00;;;;2075942;28;20219;-52
2024/01/03 02:19:46;;;;;;;2.20;0.77;;;;;17.30;97819.00;;;;2075382;28;20227;-52
2024/01/03 02:20:47;;;;;;;5.17;0.80;;;;;17.30;97821.00;;;;2082199;28;20261;-52
2024/01/03 02:21:47;;;;;;;3.87;0.90;;;;;17.30;97814.00;;;;2076347;28;20226;-53
2024/01/03 02:22:47;;;;;;;2.13;0.87;;;;;17.20;97834.00;;;;2086719;28;20224;-52
2024/01/03 02:23:48;;;;;;;3.00;0.80;;;;;17.30;97826.00;;;;2085509;28;20218;-52
2024/01/03 02:24:48;;;;;;;2.67;0.80;;;;;17.20;97832.00;;;;2086281;28;20245;-52
2024/01/03 02:25:48;;;;;;;2.03;0.70;;;;;17.20;97836.00;;;;2084415;28;20219;-52
2024/01/03 02:26:49;;;;;;;1.57;0.50;;;;;17.20;97825.00;;;;2075189;28;20690;-53
2024/01/03 02:27:50;;;;;;;3.10;0.87;;;;;17.20;97834.00;;;;2085404;28;20696;-52
2024/01/03 02:28:50;;;;;;;1.65;0.63;;;;;17.20;97827.00;;;;2093883;28;20213;-52
2024/01/03 02:29:50;;;;;;;2.80;0.70;;;;;17.30;97838.00;;;;2086645;28;20318;-52
2024/01/03 02:30:51;;;;;;;2.90;0.60;;;;;17.30;97843.00;;;;2083325;28;20860;-53
2024/01/03 02:31:51;;;;;;;2.00;0.60;;;;;17.20;97850.00;;;;2074020;28;20765;-52
2024/01/03 02:32:51;;;;;;;1.43;0.70;;;;;17.20;97859.00;;;;2088764;28;21300;-53
2024/01/03 02:33:52;;;;;;;2.33;0.80;;;;;17.20;97848.00;;;;2094100;28;20709;-52
2024/01/03 02:34:52;;;;;;;2.77;0.93;;;;;17.20;97840.00;;;;2092601;28;20220;-52
2024/01/03 02:35:52;;;;;;;4.27;0.93;;;;;17.20;97833.00;;;;2084875;28;20222;-53
2024/01/03 02:36:53;;;;;;;2.10;0.70;;;;;17.20;97827.00;;;;2077106;28;20225;-53
2024/01/03 02:37:53;;;;;;;1.53;0.60;;;;;17.20;97849.00;;;;2065218;28;20227;-52
2024/01/03 02:38:54;;;;;;;3.70;0.93;;;;;17.20;97847.00;;;;2070093;28;20228;-52
2024/01/03 02:39:54;;;;;;;2.70;0.77;;;;;17.20;97848.00;;;;2082094;28;20229;-52
2024/01/03 02:40:54;;;;;;;1.97;0.53;;;;;17.20;97803.00;;;;2084049;28;20251;-52
2024/01/03 02:41:55;;;;;;;3.83;0.70;;;;;17.20;97852.00;;;;2073765;28;20218;-52
2024/01/03 02:42:55;;;;;;;1.60;0.60;;;;;17.20;97837.00;;;;2084905;28;20711;-52
2024/01/03 02:43:55;;;;;;;2.50;0.70;;;;;17.20;97845.00;;;;2094361;28;20682;-52
2024/01/03 02:44:56;;;;;;;3.33;1.27;;;;;17.30;97842.00;;;;2083402;28;20234;-53
2024/01/03 02:45:56;;;;;;;4.37;0.90;;;;;17.30;97849.00;;;;2077408;28;20649;-52
2024/01/03 02:46:56;;;;;;;3.03;1.00;;;;;17.30;97838.00;;;;2074075;28;20240;-53
2024/01/03 02:47:57;;;;;;;3.50;1.00;;;;;17.30;97855.00;;;;2085918;28;20229;-52
2024/01/03 02:48:57;;;;;;;2.87;0.70;;;;;17.30;97839.00;;;;2085042;28;20251;-52
2024/01/03 02:49:58;;;;;;;2.00;0.50;;;;;17.30;97843.00;;;;2078141;28;20221;-53
2024/01/03 02:50:58;;;;;;;3.13;0.73;;;;;17.30;97843.00;;;;2084647;28;20268;-52
2024/01/03 02:52:00;;;;;;;2.13;0.80;;;;;17.20;97846.00;;;;2075471;28;20485;-52
2024/01/03 02:53:01;;;;;;;4.95;1.00;;;;;17.20;97849.00;;;;2085744;28;20237;-53
2024/01/03 02:54:02;;;;;;;2.10;0.60;;;;;17.20;97849.00;;;;2085450;28;20233;-53
2024/01/03 02:55:02;;;;;;;3.87;0.80;;;;;17.20;97849.00;;;;2093427;28;20205;-53
2024/01/03 02:56:02;;;;;;;2.77;0.70;;;;;17.20;97848.00;;;;2084975;28;20217;-53
2024/01/03 02:57:03;;;;;;;2.40;0.80;;;;;17.20;97835.00;;;;2066940;28;20249;-53
2024/01/03 02:58:03;;;;;;;2.60;0.87;;;;;17.20;97849.00;;;;2086058;28;20225;-53
2024/01/03 02:59:03;;;;;;;1.50;0.60;;;;;17.20;97841.00;;;;2085147;28;20231;-53
2024/01/03 03:00:05;;;;;;;2.20;0.70;;;;;17.30;97839.00;;;;2085875;28;20219;-52
2024/01/03 03:01:05;;;;;;;2.97;0.60;;;;;17.30;97850.00;;;;2087606;28;20238;-53
2024/01/03 03:02:06;;;;;;;2.70;0.87;;;;;17.20;97840.00;;;;2076171;28;20222;-53
2024/01/03 03:03:06;;;;;;;3.63;0.80;;;;;17.20;97852.00;;;;2084630;28;20211;-52
2024/01/03 03:04:07;;;;;;;3.00;0.70;;;;;17.30;97835.00;;;;2085796;28;20276;-53
2024/01/03 03:05:07;;;;;;;3.47;0.93;;;;;17.20;97835.00;;;;2084947;28;20223;-53
2024/01/03 03:06:07;;;;;;;1.90;0.70;;;;;17.30;97841.00;;;;2084954;28;20274;-52
2024/01/03 03:07:08;;;;;;;2.60;0.67;;;;;17.30;97854.00;;;;2077257;28;20254;-52
2024/01/03 03:08:08;;;;;;;1.40;0.50;;;;;17.30;97844.00;;;;2081178;28;20211;-53
2024/01/03 03:09:08;;;;;;;2.57;0.90;;;;;17.20;97845.00;;;;2085269;28;20266;-53
2024/01/03 03:10:11;;;;;;;2.10;0.73;;;;;17.30;97846.00;;;;2082919;28;20211;-52
2024/01/03 03:11:12;;;;;;;2.60;0.75;;;;;17.30;97855.00;;;;2084468;28;20224;-52
2024/01/03 03:12:13;;;;;;;2.70;0.70;;;;;17.30;97868.00;;;;2077849;28;20248;-53
2024/01/03 03:13:13;;;;;;;2.50;0.67;;;;;16.80;97852.00;;;;2085039;28;20824;-53
2024/01/03 03:14:15;;;;;;;4.20;0.80;;;;;17.30;97845.00;;;;2083644;28;20233;-53
2024/01/03 03:15:15;;;;;;;1.67;0.60;;;;;17.20;97843.00;;;;2084916;28;20209;-52
2024/01/03 03:16:16;;;;;;;2.00;0.60;;;;;17.20;97856.00;;;;2086051;28;20311;-52
2024/01/03 03:17:16;;;;;;;1.60;0.70;;;;;17.20;97857.00;;;;2073123;28;20221;-52
2024/01/03 03:18:16;;;;;;;2.70;0.70;;;;;17.20;97855.00;;;;2088430;28;20847;-52
2024/01/03 03:19:17;;;;;;;2.40;0.77;;;;;17.20;97872.00;;;;2091371;28;20689;-52
2024/01/03 03:20:17;;;;;;;3.00;1.03;;;;;17.30;97858.00;;;;2084949;28;20218;-52
2024/01/03 03:21:17;;;;;;;2.03;0.63;;;;;17.20;97853.00;;;;2084515;28;20235;-52
2024/01/03 03:22:18;;;;;;;3.30;0.70;;;;;17.30;97861.00;;;;2075172;28;20250;-52
2024/01/03 03:23:18;;;;;;;1.30;0.60;;;;;17.20;97860.00;;;;2088448;28;20214;-52
2024/01/03 03:24:18;;;;;;;1.80;0.80;;;;;17.20;97858.00;;;;2087949;28;20301;-52
2024/01/03 03:25:18;;;;;;;1.50;0.60;;;;;17.20;97860.00;;;;2085382;28;20226;-52
2024/01/03 03:26:19;;;;;;;2.20;0.70;;;;;17.30;97865.00;;;;2085747;28;20288;-52
2024/01/03 03:27:19;;;;;;;2.67;0.70;;;;;17.20;97858.00;;;;2073183;28;20229;-52
2024/01/03 03:28:21;;;;;;;3.07;0.80;;;;;17.20;97855.00;;;;2088436;28;20267;-52
2024/01/03 03:29:22;;;;;;;1.55;0.50;;;;;17.20;97861.00;;;;2085662;28;20597;-52
2024/01/03 03:30:22;;;;;;;3.60;0.77;;;;;17.20;97871.00;;;;2083234;28;20230;-52
2024/01/03 03:31:22;;;;;;;2.73;0.53;;;;;17.20;97856.00;;;;2083365;28;20234;-52
2024/01/03 03:32:23;;;;;;;2.17;0.80;;;;;17.20;97865.00;;;;2078922;28;20229;-52
2024/01/03 03:33:23;;;;;;;1.50;0.60;;;;;17.20;97869.00;;;;2088150;28;20275;-52
2024/01/03 03:34:23;;;;;;;1.83;0.60;;;;;17.20;97866.00;;;;2084846;28;20252;-52
2024/01/03 03:35:24;;;;;;;2.00;0.60;;;;;17.30;97859.00;;;;2085851;28;20311;-52
2024/01/03 03:36:24;;;;;;;2.07;0.73;;;;;17.20;97850.00;;;;2083638;28;20271;-52
2024/01/03 03:37:25;;;;;;;4.47;0.80;;;;;17.20;97848.00;;;;2075769;28;20220;-52
2024/01/03 03:38:25;;;;;;;3.90;0.90;;;;;17.30;97853.00;;;;2085084;28;20244;-52
2024/01/03 03:39:25;;;;;;;2.30;0.60;;;;;17.20;97861.00;;;;2085533;28;20457;-52
2024/01/03 03:40:26;;;;;;;3.00;0.80;;;;;17.20;97863.00;;;;2079902;28;20318;-52
2024/01/03 03:41:26;;;;;;;3.93;0.93;;;;;17.20;97863.00;;;;2083500;28;20216;-52
2024/01/03 03:42:26;;;;;;;1.73;0.60;;;;;17.20;97848.00;;;;2076127;28;20224;-52
2024/01/03 03:43:27;;;;;;;2.77;0.83;;;;;17.20;97865.00;;;;2084670;28;20241;-52
2024/01/03 03:44:27;;;;;;;2.30;0.80;;;;;17.20;97868.00;;;;2085391;28;20236;-52
2024/01/03 03:45:28;;;;;;;2.73;0.70;;;;;17.20;97871.00;;;;2084673;28;20235;-52
2024/01/03 03:46:28;;;;;;;2.23;0.73;;;;;17.20;97922.00;;;;2085838;28;20218;-52
2024/01/03 03:47:28;;;;;;;1.50;0.50;;;;;17.20;97861.00;;;;2075284;28;20768;-52
2024/01/03 03:48:29;;;;;;;5.50;0.77;;;;;17.20;97876.00;;;;2085193;28;20256;-52
2024/01/03 03:49:29;;;;;;;3.47;0.70;;;;;17.20;97894.00;;;;2085530;28;20230;-52
2024/01/03 03:50:29;;;;;;;1.70;0.60;;;;;17.20;97877.00;;;;2084895;28;20220;-52
2024/01/03 03:51:30;;;;;;;2.87;0.90;;;;;17.20;97884.00;;;;2084458;28;20231;-52
2024/01/03 03:52:30;;;;;;;2.03;0.60;;;;;17.20;97878.00;;;;2074442;28;20292;-52
2024/01/03 03:53:30;;;;;;;2.50;0.63;;;;;17.20;97873.00;;;;2084025;28;20224;-52
2024/01/03 03:54:30;;;;;;;2.30;0.90;;;;;17.20;97887.00;;;;2084320;28;20335;-52
2024/01/03 03:55:31;;;;;;;4.00;0.83;;;;;17.20;97893.00;;;;2084540;28;20305;-52
2024/01/03 03:56:31;;;;;;;1.90;0.60;;;;;17.20;97881.00;;;;2085431;28;20280;-52
2024/01/03 03:57:31;;;;;;;2.40;0.60;;;;;17.20;97892.00;;;;2074182;28;20301;-52
2024/01/03 03:58:32;;;;;;;2.47;0.63;;;;;17.20;97884.00;;;;2089695;28;20256;-52
2024/01/03 03:59:32;;;;;;;1.93;0.60;;;;;17.20;97888.00;;;;2085929;28;20375;-52
2024/01/03 04:00:32;;;;;;;2.37;0.83;;;;;17.20;97890.00;;;;2088835;28;20330;-52
2024/01/03 04:01:33;;;;;;;2.80;0.80;;;;;17.20;97892.00;;;;2087041;28;20218;-52
2024/01/03 04:02:33;;;;;;;2.23;0.70;;;;;17.20;97890.00;;;;2075104;28;20229;-52
2024/01/03 04:03:34;;;;;;;2.07;0.73;;;;;17.20;97887.00;;;;2083827;28;20312;-52
2024/01/03 04:04:34;;;;;;;3.33;0.80;;;;;17.20;97896.00;;;;2084821;28;20230;-52
2024/01/03 04:05:35;;;;;;;1.73;0.50;;;;;17.20;97896.00;;;;2083790;28;20229;-52
2024/01/03 04:06:40;;;;;;;4.00;0.98;;;;;17.20;97887.00;;;;2082689;28;20224;-52
2024/01/03 04:07:41;;;;;;;1.75;0.60;;;;;17.20;97897.00;;;;2075428;28;20247;-53
2024/01/03 04:08:45;;;;;;;3.77;0.90;;;;;17.20;97884.00;;;;2087759;28;20218;-52
2024/01/03 04:09:45;;;;;;;2.38;0.70;;;;;17.20;97891.00;;;;2085139;28;20573;-52
2024/01/03 04:10:46;;;;;;;2.20;0.60;;;;;17.20;97884.00;;;;2085686;28;20222;-52
2024/01/03 04:11:46;;;;;;;3.20;0.80;;;;;17.20;97890.00;;;;2071737;28;20220;-53
2024/01/03 04:12:47;;;;;;;2.53;0.70;;;;;17.20;97898.00;;;;2085612;28;20220;-52
2024/01/03 04:13:47;;;;;;;3.17;0.80;;;;;17.20;97896.00;;;;2086443;28;20562;-52
2024/01/03 04:14:47;;;;;;;2.03;0.60;;;;;17.20;97891.00;;;;2084799;28;20227;-52
2024/01/03 04:15:48;;;;;;;1.10;0.40;;;;;17.20;97893.00;;;;2084535;28;20218;-52
2024/01/03 04:16:48;;;;;;;3.73;0.70;;;;;17.20;97899.00;;;;2075267;28;20241;-52
2024/01/03 04:17:49;;;;;;;2.40;0.63;;;;;17.20;97889.00;;;;2085721;28;20218;-52
2024/01/03 04:18:49;;;;;;;2.20;0.63;;;;;17.20;97910.00;;;;2084993;28;20656;-52
2024/01/03 04:19:49;;;;;;;1.70;0.50;;;;;17.20;97893.00;;;;2085212;28;20236;-52
2024/01/03 04:20:50;;;;;;;1.87;0.63;;;;;17.20;97879.00;;;;2082436;28;20214;-52
2024/01/03 04:21:50;;;;;;;1.10;0.50;;;;;17.20;97896.00;;;;2075776;28;20262;-52
2024/01/03 04:22:50;;;;;;;1.60;0.73;;;;;17.20;97898.00;;;;2084231;28;20214;-52
2024/01/03 04:23:51;;;;;;;1.73;0.60;;;;;17.20;97892.00;;;;2091984;28;20225;-52
2024/01/03 04:24:51;;;;;;;1.43;0.50;;;;;17.20;97901.00;;;;2087341;28;20213;-52
2024/01/03 04:25:51;;;;;;;1.87;0.70;;;;;17.30;97899.00;;;;2083566;28;20223;-52
2024/01/03 04:26:53;;;;;;;2.47;0.70;;;;;17.20;97902.00;;;;2070944;28;20311;-52
2024/01/03 04:27:53;;;;;;;2.25;0.73;;;;;17.20;97892.00;;;;2083633;28;20224;-52
2024/01/03 04:28:54;;;;;;;1.53;0.53;;;;;17.20;97898.00;;;;2092063;28;20213;-52
2024/01/03 04:29:54;;;;;;;2.90;0.70;;;;;17.20;97910.00;;;;2082873;28;20589;-52
2024/01/03 04:30:54;;;;;;;1.67;0.60;;;;;17.20;97917.00;;;;2090571;28;20214;-52
2024/01/03 04:31:55;;;;;;;1.80;0.50;;;;;17.20;97911.00;;;;2076054;28;20212;-52
2024/01/03 04:32:55;;;;;;;2.73;0.80;;;;;17.20;97896.00;;;;2078904;28;20219;-52
2024/01/03 04:33:55;;;;;;;1.60;0.60;;;;;17.20;97902.00;;;;2083774;28;20220;-52
2024/01/03 04:34:56;;;;;;;2.00;0.57;;;;;17.20;97910.00;;;;2086388;28;20228;-52
2024/01/03 04:35:56;;;;;;;3.53;0.63;;;;;17.20;97893.00;;;;2087307;28;20214;-52
2024/01/03 04:36:56;;;;;;;1.63;0.50;;;;;17.20;97909.00;;;;2076581;28;20214;-52
2024/01/03 04:38:02;;;;;;;1.97;0.90;;;;;17.20;97910.00;;;;2086564;28;20699;-52
2024/01/03 04:39:03;;;;;;;1.60;0.52;;;;;17.20;97915.00;;;;2094472;28;20947;-52
2024/01/03 04:40:03;;;;;;;2.37;0.83;;;;;17.20;97909.00;;;;2085314;28;20226;-52
2024/01/03 04:41:03;;;;;;;2.77;0.70;;;;;17.20;97905.00;;;;2085674;28;20308;-52
2024/01/03 04:42:04;;;;;;;1.97;0.63;;;;;17.20;97905.00;;;;2078922;28;20242;-52
2024/01/03 04:43:04;;;;;;;3.23;1.13;;;;;17.20;97920.00;;;;2092980;28;20216;-52
2024/01/03 04:44:04;;;;;;;1.20;0.70;;;;;17.20;97906.00;;;;2091446;28;20233;-52
2024/01/03 04:45:05;;;;;;;2.80;0.60;;;;;16.20;97893.00;;;;2086862;28;20253;-52
2024/01/03 04:46:05;;;;;;;1.87;0.60;;;;;17.20;97916.00;;;;2087234;28;20225;-52
2024/01/03 04:47:06;;;;;;;2.17;0.60;;;;;17.20;97905.00;;;;2075881;28;20267;-52
2024/01/03 04:48:06;;;;;;;3.53;0.80;;;;;17.20;97905.00;;;;2086666;28;20221;-52
2024/01/03 04:49:06;;;;;;;1.73;0.60;;;;;17.20;97913.00;;;;2080897;28;20229;-52
2024/01/03 04:50:07;;;;;;;1.43;0.53;;;;;17.20;97907.00;;;;2086769;28;20225;-52
2024/01/03 04:51:09;;;;;;;2.30;0.57;;;;;17.20;97920.00;;;;2083974;28;20773;-52
2024/01/03 04:52:11;;;;;;;3.75;0.80;;;;;17.30;97921.00;;;;2068451;28;20265;-52
2024/01/03 04:53:11;;;;;;;1.73;0.57;;;;;17.20;97913.00;;;;2085693;28;20747;-53
2024/01/03 04:54:12;;;;;;;2.53;0.83;;;;;16.90;97893.00;;;;2086924;28;20224;-53
2024/01/03 04:55:12;;;;;;;2.80;0.70;;;;;17.20;97911.00;;;;2094812;28;20282;-53
2024/01/03 04:56:12;;;;;;;2.33;0.57;;;;;17.20;97907.00;;;;2084170;28;20314;-52
2024/01/03 04:57:13;;;;;;;2.43;0.70;;;;;17.20;97917.00;;;;2077064;28;20228;-52
2024/01/03 04:58:13;;;;;;;1.83;0.67;;;;;17.20;97911.00;;;;2086551;28;20215;-53
2024/01/03 04:59:13;;;;;;;2.27;0.70;;;;;17.20;97906.00;;;;2094804;28;20221;-53
2024/01/03 05:00:14;;;;;;;3.50;0.80;;;;;17.20;97913.00;;;;2094341;28;20386;-53
2024/01/03 05:01:14;;;;;;;1.67;0.57;;;;;17.20;97909.00;;;;2080296;28;20307;-52
2024/01/03 05:02:15;;;;;;;2.40;0.67;;;;;17.20;97917.00;;;;2075778;28;21031;-53
2024/01/03 05:03:16;;;;;;;3.30;0.70;;;;;17.20;97924.00;;;;2089303;28;20754;-52
2024/01/03 05:04:16;;;;;;;2.10;0.57;;;;;17.20;97892.00;;;;2086809;28;20689;-52
2024/01/03 05:05:16;;;;;;;2.33;0.70;;;;;17.20;97908.00;;;;2085806;28;20245;-52